Time;durP1;ratioP1;P1;durP2;ratioP2;P2;SDS_P1;SDS_P2;PMS_P1;PMS_P2;Temp;Humidity;BMP_temperature;BMP_pressure;BME280_temperature;BME280_humidity;BME280_pressure;Samples;Min_cycle;Max_cycle;Signal;HPM_P1;HPM_P2
2021/07/23 00:02:10;;;;;;;;;1.67;0.00;;;;;28.85;37.28;101028.69;5057804;28;45441;-62
2021/07/23 00:04:36;;;;;;;;;0.00;0.00;;;;;28.84;38.07;101026.03;5057958;28;45440;-62
2021/07/23 00:07:01;;;;;;;;;0.00;0.00;;;;;28.85;37.52;101033.28;5057377;28;45541;-62
2021/07/23 00:09:26;;;;;;;;;1.00;0.00;;;;;28.84;37.41;101028.75;5057236;28;45516;-62
2021/07/23 00:11:52;;;;;;;;;0.00;0.00;;;;;28.84;37.49;101031.50;5039553;28;45754;-62
2021/07/23 00:14:17;;;;;;;;;0.67;0.67;;;;;28.83;37.74;101027.00;5057397;28;45437;-62
2021/07/23 00:16:43;;;;;;;;;0.00;0.00;;;;;28.83;37.59;101022.41;5057496;28;45894;-62
2021/07/23 00:19:09;;;;;;;;;0.00;0.00;;;;;28.82;37.76;101017.88;5057308;28;45770;-61
2021/07/23 00:21:34;;;;;;;;;0.00;0.00;;;;;28.83;37.39;101010.59;5057983;28;45453;-62
2021/07/23 00:23:59;;;;;;;;;0.00;0.00;;;;;28.82;37.41;101020.63;5057447;28;45320;-62
2021/07/23 00:26:25;;;;;;;;;0.00;0.00;;;;;28.81;37.50;101016.16;5057195;28;45508;-62
2021/07/23 00:28:50;;;;;;;;;0.00;0.00;;;;;28.80;37.73;101017.09;5057177;28;45417;-62
2021/07/23 00:31:17;;;;;;;;;0.00;0.00;;;;;28.79;37.57;101015.34;5057235;28;45698;-62
2021/07/23 00:33:43;;;;;;;;;0.67;0.67;;;;;28.79;38.07;101009.88;5057040;28;45373;-62
2021/07/23 00:36:08;;;;;;;;;0.00;0.00;;;;;28.78;37.75;101001.75;5057138;28;45753;-62
2021/07/23 00:38:33;;;;;;;;;0.00;0.00;;;;;28.76;38.11;101004.56;5056824;28;45520;-62
2021/07/23 00:40:59;;;;;;;;;0.00;0.00;;;;;28.76;37.99;100993.63;5057079;28;45833;-62
2021/07/23 00:43:24;;;;;;;;;0.00;0.00;;;;;28.78;37.73;100999.00;5056659;28;45495;-62
2021/07/23 00:45:50;;;;;;;;;0.00;0.00;;;;;28.77;37.83;101000.88;5056778;28;45496;-63
2021/07/23 00:48:16;;;;;;;;;0.00;0.00;;;;;28.76;37.62;100993.63;5057101;28;45468;-62
2021/07/23 00:50:43;;;;;;;;;0.00;0.00;;;;;28.76;37.44;100990.88;5056899;28;45471;-61
2021/07/23 00:53:09;;;;;;;;;0.00;0.00;;;;;28.76;37.46;100996.34;5056960;28;45625;-61
2021/07/23 00:55:37;;;;;;;;;1.00;1.00;;;;;28.75;37.92;100989.13;5056580;28;45377;-62
2021/07/23 00:58:04;;;;;;;;;0.00;0.00;;;;;28.75;37.86;100991.88;5057372;28;45467;-62
2021/07/23 01:00:30;;;;;;;;;0.00;0.00;;;;;28.74;37.31;100979.13;5054126;28;45513;-61
2021/07/23 01:02:56;;;;;;;;;1.00;0.00;;;;;28.72;37.88;100979.25;5056893;28;45516;-62
2021/07/23 01:05:22;;;;;;;;;0.00;0.00;;;;;28.73;37.65;100986.47;5056845;28;45655;-60
2021/07/23 01:07:54;;;;;;;;;0.00;0.00;;;;;28.73;37.94;100977.38;5056627;28;45529;-61
2021/07/23 01:10:27;;;;;;;;;0.00;0.00;;;;;28.71;37.98;100972.00;5056714;28;45544;-61
2021/07/23 01:12:52;;;;;;;;;0.00;0.00;;;;;28.72;38.14;100975.59;5056832;28;45423;-61
2021/07/23 01:15:18;;;;;;;;;0.00;0.00;;;;;28.72;38.11;100964.66;5056418;28;46697;-61
2021/07/23 01:17:43;;;;;;;;;0.00;0.00;;;;;28.71;38.05;100966.53;5056753;28;45570;-61
2021/07/23 01:20:21;;;;;;;;;0.33;0.00;;;;;28.70;37.45;100966.59;5056778;28;45453;-61
2021/07/23 01:22:47;;;;;;;;;0.00;0.00;;;;;28.69;38.26;100965.72;5056549;28;45544;-61
2021/07/23 01:25:14;;;;;;;;;0.00;0.00;;;;;28.69;38.15;100968.47;5056387;28;45696;-61
2021/07/23 01:27:50;;;;;;;;;0.00;0.00;;;;;28.68;37.93;100968.53;5056315;28;45369;-61
2021/07/23 01:30:16;;;;;;;;;0.00;0.00;;;;;28.69;37.80;100971.19;5056370;28;45457;-61
2021/07/23 01:32:41;;;;;;;;;0.00;0.00;;;;;28.68;37.63;100974.03;5056694;28;45414;-61
2021/07/23 01:35:08;;;;;;;;;0.00;0.00;;;;;28.67;37.71;100967.66;5056091;28;46295;-62
2021/07/23 01:37:34;;;;;;;;;0.00;0.00;;;;;28.68;38.10;100968.53;5056381;28;45501;-62
2021/07/23 01:39:59;;;;;;;;;0.00;0.00;;;;;28.66;38.33;100965.00;5056616;28;45477;-61
2021/07/23 01:42:30;;;;;;;;;0.00;0.00;;;;;28.66;37.85;100967.75;5056519;28;45402;-62
2021/07/23 01:44:56;;;;;;;;;0.00;0.00;;;;;28.65;38.36;100971.47;5055928;28;45480;-61
2021/07/23 01:47:22;;;;;;;;;0.00;0.00;;;;;28.65;38.21;100957.78;5055667;28;45442;-61
2021/07/23 01:49:47;;;;;;;;;0.00;0.00;;;;;28.65;37.84;100955.06;5056390;28;45375;-61
2021/07/23 01:52:12;;;;;;;;;0.00;0.00;;;;;28.63;38.29;100946.06;5056207;28;45721;-61
2021/07/23 01:54:38;;;;;;;;;0.00;0.00;;;;;28.64;38.19;100956.00;5053792;28;46081;-61
2021/07/23 01:57:04;;;;;;;;;0.67;0.00;;;;;28.63;38.06;100955.13;5056060;28;45780;-60
2021/07/23 01:59:30;;;;;;;;;0.00;0.00;;;;;28.64;38.21;100950.53;5037810;28;45493;-61
2021/07/23 02:01:59;;;;;;;;;0.00;0.00;;;;;28.63;37.90;100946.06;5055833;28;45394;-61
2021/07/23 02:04:25;;;;;;;;;0.00;0.00;;;;;28.63;37.75;100944.19;5055807;28;45456;-61
2021/07/23 02:06:50;;;;;;;;;0.00;0.00;;;;;28.63;38.58;100940.59;5056059;28;45858;-61
2021/07/23 02:09:17;;;;;;;;;0.00;0.00;;;;;28.62;38.43;100942.44;5055867;28;45421;-61
2021/07/23 02:11:42;;;;;;;;;0.00;0.00;;;;;28.61;38.55;100954.34;5055746;28;45429;-61
2021/07/23 02:14:08;;;;;;;;;0.00;0.00;;;;;28.62;38.36;100952.47;5055601;28;45474;-62
2021/07/23 02:16:36;;;;;;;;;0.00;0.00;;;;;28.61;38.08;100950.75;5055411;28;45731;-62
2021/07/23 02:19:06;;;;;;;;;0.00;0.00;;;;;28.62;38.44;100953.38;5055694;28;45722;-61
2021/07/23 02:21:34;;;;;;;;;0.00;0.00;;;;;28.62;38.14;100945.19;5055708;28;45454;-61
2021/07/23 02:24:00;;;;;;;;;0.00;0.00;;;;;28.59;38.28;100948.09;5037070;28;48424;-62
2021/07/23 02:26:25;;;;;;;;;0.00;0.00;;;;;28.61;38.60;100950.75;5055401;28;45517;-61
2021/07/23 02:28:51;;;;;;;;;0.00;0.00;;;;;28.60;37.93;100943.47;5055115;27;45393;-61
2021/07/23 02:31:16;;;;;;;;;0.00;0.00;;;;;28.61;37.98;100943.41;5037258;28;45540;-60
2021/07/23 02:33:42;;;;;;;;;0.00;0.00;;;;;28.60;38.46;100946.22;5055227;28;45756;-61
2021/07/23 02:36:08;;;;;;;;;0.00;0.00;;;;;28.60;37.97;100940.75;5055440;28;45504;-61
2021/07/23 02:38:33;;;;;;;;;0.00;0.00;;;;;28.59;38.54;100941.72;5055256;28;45504;-62
2021/07/23 02:40:58;;;;;;;;;0.00;0.00;;;;;28.59;38.06;100944.47;5055344;28;45502;-62
2021/07/23 02:43:24;;;;;;;;;0.00;0.00;;;;;28.58;38.00;100951.81;5054975;28;45449;-62
2021/07/23 02:45:49;;;;;;;;;0.00;0.00;;;;;28.57;38.06;100941.81;5054637;28;45490;-61
2021/07/23 02:48:15;;;;;;;;;0.00;0.00;;;;;28.58;38.42;100935.38;5055074;28;45429;-61
2021/07/23 02:50:42;;;;;;;;;0.00;0.00;;;;;28.59;38.26;100941.72;5055124;28;45431;-61
2021/07/23 02:53:07;;;;;;;;;0.00;0.00;;;;;28.57;38.64;100921.78;5054824;28;45570;-60
2021/07/23 02:55:33;;;;;;;;;0.00;0.00;;;;;28.58;38.16;100926.28;5055121;28;45346;-61
2021/07/23 02:57:58;;;;;;;;;0.00;0.00;;;;;28.57;38.08;100921.78;5055063;28;45408;-61
2021/07/23 03:00:24;;;;;;;;;0.00;0.00;;;;;28.58;38.66;100926.28;5054950;28;45448;-61
2021/07/23 03:02:51;;;;;;;;;0.00;0.00;;;;;28.56;38.25;100914.53;5054807;28;45416;-61
2021/07/23 03:05:16;;;;;;;;;0.00;0.00;;;;;28.56;37.89;100920.91;5054851;28;45398;-62
2021/07/23 03:07:42;;;;;;;;;0.00;0.00;;;;;28.57;38.07;100921.78;5054202;28;45461;-61
2021/07/23 03:10:07;;;;;;;;;0.00;0.00;;;;;28.55;38.25;100918.25;5054600;28;45532;-62
2021/07/23 03:12:33;;;;;;;;;0.00;0.00;;;;;28.55;38.45;100918.25;5054692;28;46027;-61
2021/07/23 03:14:59;;;;;;;;;0.00;0.00;;;;;28.55;37.99;100921.00;5054665;28;45469;-61
2021/07/23 03:17:24;;;;;;;;;0.00;0.00;;;;;28.53;38.21;100910.13;5054520;28;45518;-61
2021/07/23 03:19:49;;;;;;;;;0.00;0.00;;;;;28.55;38.68;100919.13;5054872;28;45406;-61
2021/07/23 03:22:15;;;;;;;;;0.00;0.00;;;;;28.53;38.81;100913.75;5054668;28;46077;-60
2021/07/23 03:24:41;;;;;;;;;0.00;0.00;;;;;28.54;38.22;100917.34;5054384;28;45551;-61
2021/07/23 03:27:07;;;;;;;;;0.00;0.00;;;;;28.53;38.68;100910.13;5054641;28;45452;-61
2021/07/23 03:29:33;;;;;;;;;0.00;0.00;;;;;28.52;38.36;100909.25;5054511;28;45756;-61
2021/07/23 03:31:59;;;;;;;;;0.00;0.00;;;;;28.52;38.35;100920.19;5054483;28;45421;-61
2021/07/23 03:34:24;;;;;;;;;0.00;0.00;;;;;28.50;38.05;100916.69;5054404;28;45580;-61
2021/07/23 03:36:50;;;;;;;;;0.00;0.00;;;;;28.51;38.31;100920.28;5054469;28;45843;-61
2021/07/23 03:39:15;;;;;;;;;0.00;0.00;;;;;28.49;38.72;100909.38;5054656;28;45461;-61
2021/07/23 03:41:42;;;;;;;;;0.00;0.00;;;;;28.48;38.27;100907.63;5054533;28;46164;-63
2021/07/23 03:44:07;;;;;;;;;0.00;0.00;;;;;28.47;38.17;100897.66;5036242;28;45447;-61
2021/07/23 03:46:32;;;;;;;;;0.00;0.00;;;;;28.47;38.30;100897.66;5054414;28;45757;-62
2021/07/23 03:48:58;;;;;;;;;0.00;0.00;;;;;28.47;38.48;100888.56;5054714;28;45533;-61
2021/07/23 03:51:25;;;;;;;;;0.00;0.00;;;;;28.46;38.39;100882.22;5054370;28;45928;-61
2021/07/23 03:53:50;;;;;;;;;0.00;0.00;;;;;28.45;38.85;100874.97;5053860;28;45434;-60
2021/07/23 03:56:15;;;;;;;;;0.00;0.00;;;;;28.45;38.29;100874.09;5036349;28;45711;-61
2021/07/23 03:58:40;;;;;;;;;0.00;0.00;;;;;28.44;38.67;100862.28;5054266;28;45367;-61
2021/07/23 04:01:06;;;;;;;;;0.00;0.00;;;;;28.43;38.91;100851.41;5053961;28;45960;-62
2021/07/23 04:03:33;;;;;;;;;0.00;0.00;;;;;28.41;38.71;100846.03;5053855;28;45518;-60
2021/07/23 04:06:02;;;;;;;;;0.00;0.00;;;;;28.42;38.94;100845.06;5054262;28;45745;-61
2021/07/23 04:08:28;;;;;;;;;0.00;0.00;;;;;28.41;38.77;100840.56;5054041;28;45493;-61
2021/07/23 04:10:53;;;;;;;;;0.00;0.00;;;;;28.41;39.04;100845.16;5053807;28;46581;-61
2021/07/23 04:13:19;;;;;;;;;0.00;0.00;;;;;28.41;38.42;100851.50;5052359;28;45408;-61
2021/07/23 04:15:44;;;;;;;;;0.00;0.00;;;;;28.40;38.69;100855.22;5053989;28;45447;-62
2021/07/23 04:18:10;;;;;;;;;0.00;0.00;;;;;28.39;38.45;100858.03;5055766;28;45411;-61
2021/07/23 04:20:35;;;;;;;;;0.00;0.00;;;;;28.38;38.49;100851.69;5057362;28;46164;-61
2021/07/23 04:23:00;;;;;;;;;0.00;0.00;;;;;28.35;38.52;100849.13;5057294;28;45441;-62
2021/07/23 04:25:26;;;;;;;;;0.00;0.00;;;;;28.37;38.80;100858.13;5057309;28;45480;-62
2021/07/23 04:27:51;;;;;;;;;0.00;0.00;;;;;28.35;39.01;100846.41;5057587;28;45480;-61
2021/07/23 04:30:17;;;;;;;;;0.00;0.00;;;;;28.35;38.54;100846.41;5038863;28;45596;-61
2021/07/23 04:32:43;;;;;;;;;0.00;0.00;;;;;28.35;39.19;100840.94;5056995;28;45362;-62
2021/07/23 04:35:09;;;;;;;;;0.00;0.00;;;;;28.32;38.62;100841.13;5057282;28;45397;-61
2021/07/23 04:37:35;;;;;;;;;0.00;0.00;;;;;28.33;39.16;100846.47;5057291;28;45461;-61
2021/07/23 04:40:05;;;;;;;;;1.00;0.00;;;;;28.32;38.75;100842.00;5056928;28;46031;-61
2021/07/23 04:42:31;;;;;;;;;0.00;0.00;;;;;28.31;38.92;100839.34;5031043;28;45441;-62
2021/07/23 04:44:56;;;;;;;;;0.00;0.00;;;;;28.28;38.48;100831.34;5038733;28;45808;-62
2021/07/23 04:47:21;;;;;;;;;0.33;0.00;;;;;28.31;39.28;100842.06;5057072;28;45389;-62
2021/07/23 04:49:47;;;;;;;;;0.00;0.00;;;;;28.30;39.02;100838.47;5056792;28;46057;-62
2021/07/23 04:52:12;;;;;;;;;0.00;0.00;;;;;28.30;38.75;100837.59;5056754;28;45351;-62
2021/07/23 04:54:37;;;;;;;;;0.00;0.00;;;;;28.29;39.16;100835.81;5056761;28;45758;-62
2021/07/23 04:57:03;;;;;;;;;0.00;0.00;;;;;28.29;39.15;100846.75;5057352;28;45720;-62
2021/07/23 04:59:28;;;;;;;;;0.00;0.00;;;;;28.29;38.84;100852.22;5054682;28;47088;-62
2021/07/23 05:01:54;;;;;;;;;0.00;0.00;;;;;28.27;38.75;100851.44;5056279;28;45382;-62
2021/07/23 05:04:20;;;;;;;;;0.00;0.00;;;;;28.29;38.89;100857.69;5056852;28;45420;-62
2021/07/23 05:06:45;;;;;;;;;0.00;0.00;;;;;28.28;38.69;100851.34;5056815;28;45489;-63
2021/07/23 05:09:11;;;;;;;;;0.00;0.00;;;;;28.27;38.95;100845.97;5056321;28;46279;-62
2021/07/23 05:11:36;;;;;;;;;0.00;0.00;;;;;28.28;39.42;100839.53;5056892;28;45425;-61
2021/07/23 05:14:02;;;;;;;;;0.00;0.00;;;;;28.29;39.35;100841.28;5057216;28;45726;-62
2021/07/23 05:16:28;;;;;;;;;0.00;0.00;;;;;28.27;39.22;100843.22;5038683;28;45823;-62
2021/07/23 05:18:54;;;;;;;;;0.00;0.00;;;;;28.29;38.67;100841.28;5038208;28;46224;-61
2021/07/23 05:21:19;;;;;;;;;0.00;0.00;;;;;28.30;38.86;100843.06;5056541;28;45452;-62
2021/07/23 05:23:46;;;;;;;;;0.00;0.00;;;;;28.30;39.24;100840.31;5056482;28;45383;-62
2021/07/23 05:29:33;;;;;;;;;0.00;0.00;;;;;28.31;38.97;100837.47;5054480;28;45852;-61
2021/07/23 05:31:58;;;;;;;;;0.00;0.00;;;;;28.31;38.73;100832.00;5056276;28;45766;-64
2021/07/23 05:34:23;;;;;;;;;0.00;0.00;;;;;28.31;39.34;100833.88;5056384;28;45452;-62
2021/07/23 05:36:49;;;;;;;;;0.00;0.00;;;;;28.34;39.02;100836.44;5056301;28;45512;-62
2021/07/23 05:39:15;;;;;;;;;0.00;0.00;;;;;28.35;38.75;100840.94;5055831;28;46329;-62
2021/07/23 05:41:40;;;;;;;;;0.00;0.00;;;;;28.34;38.93;100839.19;5056415;28;45560;-62
2021/07/23 05:44:06;;;;;;;;;0.00;0.00;;;;;28.36;39.41;100836.31;5056166;28;45421;-62
2021/07/23 05:46:34;;;;;;;;;0.00;0.00;;;;;28.37;38.83;100836.25;5056305;28;45484;-62
2021/07/23 05:48:59;;;;;;;;;0.00;0.00;;;;;28.37;39.14;100836.25;5055753;28;46504;-62
2021/07/23 05:51:26;;;;;;;;;0.00;0.00;;;;;28.39;39.34;100830.69;5055994;28;45397;-62
2021/07/23 05:53:51;;;;;;;;;0.00;0.00;;;;;28.39;39.06;100826.09;5056098;28;45468;-62
2021/07/23 05:56:16;;;;;;;;;0.00;0.00;;;;;28.40;38.76;100821.50;5056125;28;45211;-62
2021/07/23 05:58:42;;;;;;;;;1.00;1.00;;;;;28.41;38.94;100828.75;5055548;28;45993;-62
2021/07/23 06:01:07;;;;;;;;;0.33;0.33;;;;;28.41;38.98;100813.22;5055708;28;45459;-62
2021/07/23 06:03:35;;;;;;;;;0.00;0.00;;;;;28.42;38.78;100814.97;5055909;28;45739;-62
2021/07/23 06:06:02;;;;;;;;;0.00;0.00;;;;;28.45;38.89;100808.44;5055931;28;45429;-62
2021/07/23 06:08:27;;;;;;;;;0.00;0.00;;;;;28.45;38.59;100800.22;5055437;28;45522;-63
2021/07/23 06:10:53;;;;;;;;;0.00;0.00;;;;;28.45;38.82;100794.75;5055876;28;45446;-62
2021/07/23 06:13:18;;;;;;;;;0.00;0.00;;;;;28.45;39.10;100792.91;5055569;28;46376;-63
2021/07/23 06:15:45;;;;;;;;;0.00;0.00;;;;;28.46;39.07;100791.94;5037536;28;45445;-63
2021/07/23 06:18:10;;;;;;;;;0.00;0.00;;;;;28.46;39.08;100786.47;5053843;28;48568;-62
2021/07/23 06:20:35;;;;;;;;;0.00;0.00;;;;;28.47;39.09;100790.94;5055498;28;45464;-62
2021/07/23 06:23:00;;;;;;;;;0.33;0.33;;;;;28.48;39.02;100786.34;5055595;28;45461;-62
2021/07/23 06:25:33;;;;;;;;;0.00;0.00;;;;;28.48;38.86;100787.25;5056276;28;45499;-62
2021/07/23 06:27:58;;;;;;;;;0.00;0.00;;;;;28.51;38.86;100778.88;5056652;28;45805;-62
2021/07/23 06:30:23;;;;;;;;;0.00;0.00;;;;;28.52;39.12;100788.88;5054153;28;45703;-61
2021/07/23 06:32:49;;;;;;;;;1.00;1.00;;;;;28.53;39.17;100784.25;5055388;28;45425;-61
2021/07/23 06:35:14;;;;;;;;;0.00;0.00;;;;;28.55;39.16;100775.97;5055518;28;45435;-61
2021/07/23 06:37:39;;;;;;;;;6.00;6.00;;;;;28.53;39.29;100779.66;5055529;28;46048;-62
2021/07/23 06:40:05;;;;;;;;;10.33;10.33;;;;;28.38;38.49;100775.09;5054638;28;45500;-61
2021/07/23 06:42:33;;;;;;;;;16.00;15.00;;;;;28.12;39.30;100769.31;5053882;28;45421;-62
2021/07/23 06:44:58;;;;;;;;;16.33;15.00;;;;;27.85;39.04;100765.44;5055564;28;45528;-62
2021/07/23 06:47:24;;;;;;;;;18.00;18.00;;;;;27.67;39.40;100770.09;5054798;28;46006;-62
2021/07/23 06:49:51;;;;;;;;;18.33;18.33;;;;;27.40;40.47;100769.81;5055180;28;45489;-62
2021/07/23 06:52:24;;;;;;;;;18.67;18.67;;;;;27.21;40.38;100776.25;5054973;28;45409;-62
2021/07/23 06:54:49;;;;;;;;;14.67;12.67;;;;;27.11;40.93;100780.47;5055314;28;45576;-62
2021/07/23 06:57:14;;;;;;;;;17.67;17.67;;;;;27.03;40.96;100774.53;5055169;28;46012;-62
2021/07/23 06:59:40;;;;;;;;;17.00;17.00;;;;;26.95;41.09;100783.13;5055101;28;45432;-62
2021/07/23 07:02:05;;;;;;;;;16.00;15.33;;;;;26.85;41.59;100770.94;5055111;28;45599;-61
2021/07/23 07:04:32;;;;;;;;;20.00;20.00;;;;;26.76;41.68;100774.16;5055340;28;45393;-62
2021/07/23 07:06:58;;;;;;;;;19.00;19.00;;;;;26.66;41.86;100771.03;5053293;28;47094;-62
2021/07/23 07:09:25;;;;;;;;;15.00;15.00;;;;;26.60;41.98;100768.63;5054714;28;45418;-61
2021/07/23 07:11:51;;;;;;;;;16.00;15.33;;;;;26.55;42.32;100769.72;5055140;28;45417;-62
2021/07/23 07:14:17;;;;;;;;;19.00;17.67;;;;;26.55;42.03;100752.47;5055165;28;45396;-62
2021/07/23 07:16:42;;;;;;;;;21.67;21.67;;;;;26.54;42.44;100753.41;5054409;28;45494;-60
2021/07/23 07:19:08;;;;;;;;;21.67;18.00;;;;;26.51;42.03;100754.47;5054166;28;45470;-63
2021/07/23 07:21:33;;;;;;;;;13.33;13.00;;;;;26.46;42.78;100755.66;5055101;28;45847;-61
2021/07/23 07:24:00;;;;;;;;;20.67;17.67;;;;;26.50;42.65;100762.72;5054701;28;45473;-62
2021/07/23 07:26:28;;;;;;;;;17.67;16.00;;;;;26.47;42.83;100763.78;5054649;28;45884;-62
2021/07/23 07:28:54;;;;;;;;;19.00;17.33;;;;;26.46;42.63;100767.47;5054314;28;45355;-62
2021/07/23 07:31:20;;;;;;;;;15.33;15.33;;;;;26.49;43.18;100767.31;5053599;28;45479;-62
2021/07/23 07:33:45;;;;;;;;;19.33;16.67;;;;;26.51;42.73;100772.69;5054325;28;45705;-61
2021/07/23 07:36:17;;;;;;;;;17.00;17.00;;;;;26.54;42.57;100772.50;5052530;28;45463;-63
2021/07/23 07:38:46;;;;;;;;;19.00;18.00;;;;;26.55;43.09;100777.03;5048377;28;45482;-62
2021/07/23 07:41:19;;;;;;;;;15.67;15.67;;;;;26.56;42.64;100781.50;5054098;28;45480;-62
2021/07/23 07:43:45;;;;;;;;;15.33;15.00;;;;;26.57;42.75;100774.22;5056111;28;45350;-62
2021/07/23 07:46:10;;;;;;;;;14.67;14.67;;;;;26.60;42.57;100760.44;5039976;28;45708;-62
2021/07/23 07:48:37;;;;;;;;;18.33;18.33;;;;;26.63;42.69;100760.28;5050874;28;45575;-61
2021/07/23 07:51:02;;;;;;;;;15.33;15.33;;;;;26.62;42.39;100762.16;5044850;28;45549;-63
2021/07/23 07:53:28;;;;;;;;;19.67;19.67;;;;;26.55;42.74;100764.25;5047763;28;45836;-63
2021/07/23 07:55:53;;;;;;;;;21.33;18.00;;;;;26.54;43.02;100758.88;5051996;28;47687;-63
2021/07/23 07:58:19;;;;;;;;;18.67;18.67;;;;;26.47;42.85;100752.88;5060635;28;44919;-64
2021/07/23 08:00:45;;;;;;;;;15.67;15.67;;;;;26.47;43.07;100754.72;5062995;28;45460;-61
2021/07/23 08:03:11;;;;;;;;;21.00;19.33;;;;;26.48;43.16;100754.66;5060674;28;45510;-63
2021/07/23 08:05:37;;;;;;;;;13.00;12.33;;;;;26.50;43.07;100751.81;5057561;28;45541;-63
2021/07/23 08:08:04;;;;;;;;;20.00;18.00;;;;;26.60;43.03;100752.25;5060554;28;45447;-62
2021/07/23 08:10:33;;;;;;;;;13.00;13.00;;;;;26.69;43.04;100751.78;5050984;28;45428;-63
2021/07/23 08:12:59;;;;;;;;;20.00;20.00;;;;;26.73;43.15;100753.38;5057321;28;45589;-63
2021/07/23 08:15:25;;;;;;;;;19.67;19.33;;;;;26.69;42.85;100747.19;5055435;28;47447;-61
2021/07/23 08:17:52;;;;;;;;;22.33;21.33;;;;;26.69;43.15;100740.88;5050741;28;45452;-61
2021/07/23 08:20:17;;;;;;;;;20.33;19.00;;;;;26.69;42.97;100732.69;5053902;28;45438;-60
2021/07/23 08:22:44;;;;;;;;;20.00;17.67;;;;;26.73;43.18;100737.00;5053767;28;45734;-61
2021/07/23 08:28:32;;;;;;;;;22.00;22.00;;;;;26.85;42.82;100733.63;5051956;28;45429;-62
2021/07/23 08:30:58;;;;;;;;;21.67;21.00;;;;;26.87;42.72;100723.50;5054092;28;45730;-61
2021/07/23 08:33:24;;;;;;;;;18.00;17.33;;;;;26.93;42.27;100719.56;5054123;28;45537;-62
2021/07/23 08:35:50;;;;;;;;;20.67;20.67;;;;;26.99;42.31;100721.97;5059589;28;46414;-62
2021/07/23 08:38:17;;;;;;;;;16.33;16.33;;;;;27.02;42.08;100727.22;5076849;28;45588;-63
2021/07/23 08:40:43;;;;;;;;;19.00;18.00;;;;;27.08;42.14;100713.25;5065924;28;45791;-63
2021/07/23 08:43:09;;;;;;;;;21.33;21.00;;;;;27.09;42.21;100709.56;5018584;28;45465;-63
2021/07/23 08:45:36;;;;;;;;;19.67;18.67;;;;;27.15;42.51;100705.63;5036416;28;46403;-63
2021/07/23 08:48:01;;;;;;;;;20.67;20.00;;;;;27.18;42.28;100704.56;5052686;28;45559;-63
2021/07/23 08:50:27;;;;;;;;;24.67;21.67;;;;;27.19;41.63;100701.75;5037010;28;45359;-63
2021/07/23 08:52:56;;;;;;;;;23.00;22.67;;;;;27.22;42.09;100711.59;5035338;28;45561;-62
2021/07/23 08:55:22;;;;;;;;;24.00;22.67;;;;;27.23;41.73;100703.38;5056999;28;46041;-62
2021/07/23 08:57:49;;;;;;;;;28.33;21.33;;;;;27.26;42.29;100700.44;5062635;28;45546;-62
2021/07/23 09:00:19;;;;;;;;;20.00;19.33;;;;;27.27;42.11;100699.50;5055013;28;45404;-62
2021/07/23 09:02:57;;;;;;;;;22.00;21.00;;;;;27.25;42.09;100698.72;5052089;28;45470;-62
2021/07/23 09:05:26;;;;;;;;;17.00;17.00;;;;;27.23;41.69;100697.91;5054486;28;45430;-62
2021/07/23 09:07:51;;;;;;;;;21.00;20.33;;;;;27.23;41.88;100696.97;5055370;28;45871;-62
2021/07/23 09:10:28;;;;;;;;;19.67;19.67;;;;;27.20;42.05;100691.69;5052558;28;45468;-62
2021/07/23 09:12:56;;;;;;;;;22.50;19.50;;;;;27.20;42.33;100697.16;5048790;28;45516;-62
2021/07/23 09:15:30;;;;;;;;;20.00;19.00;;;;;27.21;42.08;100694.34;5054299;28;46012;-61
2021/07/23 09:17:56;;;;;;;;;17.67;16.67;;;;;27.25;42.39;100687.78;5051440;28;45494;-62
2021/07/23 09:20:24;;;;;;;;;17.67;16.67;;;;;27.28;41.97;100679.41;5054430;28;45457;-62
2021/07/23 09:23:01;;;;;;;;;21.33;19.67;;;;;27.34;41.64;100675.44;5053699;28;45419;-62
2021/07/23 09:25:36;;;;;;;;;19.67;17.67;;;;;27.37;41.58;100680.75;5031767;28;45823;-62
2021/07/23 09:28:19;;;;;;;;;22.00;21.00;;;;;27.42;42.13;100678.63;5036715;28;45552;-62
2021/07/23 09:30:44;;;;;;;;;22.00;20.67;;;;;27.44;41.60;100671.22;5053498;28;45540;-61
2021/07/23 09:33:10;;;;;;;;;18.67;17.67;;;;;27.48;41.94;100670.06;5053103;28;45522;-61
2021/07/23 09:35:36;;;;;;;;;21.00;19.67;;;;;27.51;41.83;100658.97;5051696;28;45445;-62
2021/07/23 09:38:02;;;;;;;;;24.33;23.00;;;;;27.62;41.37;100660.19;5053911;28;45429;-62
2021/07/23 09:40:43;;;;;;;;;22.33;21.67;;;;;27.60;41.60;100660.28;5054377;28;45829;-63
2021/07/23 09:43:09;;;;;;;;;22.33;20.00;;;;;27.61;41.18;100652.97;5052969;28;45386;-62
2021/07/23 09:45:34;;;;;;;;;20.00;20.00;;;;;27.65;41.32;100649.06;5051645;28;46205;-61
2021/07/23 09:48:11;;;;;;;;;24.00;22.00;;;;;27.70;40.94;100639.66;5053448;28;46168;-62
2021/07/23 09:50:48;;;;;;;;;19.67;18.67;;;;;27.74;41.17;100634.88;5067285;28;45457;-61
2021/07/23 09:53:19;;;;;;;;;22.33;20.00;;;;;27.76;41.02;100623.88;5028327;28;45541;-61
2021/07/23 09:55:47;;;;;;;;;23.00;22.67;;;;;27.75;41.29;100625.69;5037713;28;47002;-62
2021/07/23 09:58:19;;;;;;;;;22.00;21.00;;;;;27.76;40.92;100624.75;5055775;28;45716;-64
2021/07/23 10:00:50;;;;;;;;;21.67;20.67;;;;;27.80;41.62;100619.97;5055218;28;45440;-62
2021/07/23 10:03:16;;;;;;;;;21.67;20.67;;;;;27.83;41.77;100604.25;5055403;28;45494;-61
2021/07/23 10:06:03;;;;;;;;;21.33;19.33;;;;;27.83;40.89;100600.66;5055423;28;45962;-62
2021/07/23 10:08:33;;;;;;;;;26.67;21.67;;;;;27.85;40.89;100598.72;5053759;28;45814;-61
2021/07/23 10:11:01;;;;;;;;;22.67;21.00;;;;;27.86;41.27;100582.22;5051492;28;45378;-62
2021/07/23 10:13:29;;;;;;;;;22.67;21.67;;;;;27.91;41.28;100571.03;5054588;28;45475;-62
2021/07/23 10:15:55;;;;;;;;;18.33;18.33;;;;;27.96;40.44;100574.38;5053799;28;45448;-63
2021/07/23 10:18:23;;;;;;;;;19.33;18.67;;;;;28.00;41.08;100578.69;5055127;28;45371;-62
2021/07/23 10:20:49;;;;;;;;;19.33;19.33;;;;;28.01;40.41;100572.22;5054842;28;45406;-62
2021/07/23 10:23:23;;;;;;;;;21.67;21.33;;;;;28.00;40.54;100545.88;5054948;28;45394;-62
2021/07/23 10:25:53;;;;;;;;;22.33;21.33;;;;;28.05;40.56;100551.91;5055257;28;45499;-62
2021/07/23 10:28:41;;;;;;;;;20.67;20.67;;;;;28.14;40.20;100539.56;5054918;28;44775;-63
2021/07/23 10:31:31;;;;;;;;;17.67;16.00;;;;;28.15;40.10;100540.44;5054576;28;45608;-62
2021/07/23 10:33:57;;;;;;;;;18.67;17.33;;;;;28.09;39.07;100528.00;5042612;28;45563;-62
2021/07/23 10:36:31;;;;;;;;;19.67;19.67;;;;;28.11;39.33;100526.06;5054493;28;45437;-62
2021/07/23 10:39:06;;;;;;;;;18.67;18.67;;;;;28.12;39.39;100528.72;5054468;28;45760;-62
2021/07/23 10:41:36;;;;;;;;;20.33;20.33;;;;;28.16;39.69;100532.13;5054378;28;45603;-62
2021/07/23 10:44:03;;;;;;;;;16.67;16.67;;;;;28.20;40.09;100521.84;5055310;28;45705;-62
2021/07/23 10:46:44;;;;;;;;;18.00;16.00;;;;;28.24;39.62;100516.13;5055185;28;45488;-61
2021/07/23 10:49:10;;;;;;;;;21.33;18.33;;;;;28.28;39.21;100516.81;5050920;28;45529;-61
2021/07/23 10:51:46;;;;;;;;;17.33;14.67;;;;;28.29;38.66;100508.47;5053058;28;44979;-62
2021/07/23 10:54:12;;;;;;;;;16.67;16.67;;;;;28.35;38.65;100500.88;5049490;28;45426;-62
2021/07/23 10:56:57;;;;;;;;;17.00;17.00;;;;;28.32;38.29;100494.63;5054836;28;46331;-61
2021/07/23 10:59:38;;;;;;;;;18.67;17.67;;;;;28.32;38.17;100491.03;5054534;28;45413;-61
2021/07/23 11:02:15;;;;;;;;;19.33;19.00;;;;;28.31;38.25;100489.25;5053337;28;45404;-61
2021/07/23 11:04:53;;;;;;;;;20.67;20.33;;;;;28.35;38.49;100496.28;5054898;28;45425;-62
2021/07/23 11:07:25;;;;;;;;;22.67;20.33;;;;;28.33;36.91;100492.75;5054481;28;46085;-62
2021/07/23 11:09:50;;;;;;;;;20.67;18.00;;;;;28.31;37.29;100479.19;5053986;28;45468;-62
2021/07/23 11:12:18;;;;;;;;;15.67;15.67;;;;;28.27;37.66;100483.09;5054645;28;45362;-61
2021/07/23 11:14:50;;;;;;;;;20.33;18.00;;;;;28.22;37.49;100474.31;5055202;28;45415;-62
2021/07/23 11:17:18;;;;;;;;;21.33;21.33;;;;;28.20;37.69;100465.34;5055235;28;45351;-62
2021/07/23 11:19:55;;;;;;;;;22.00;20.00;;;;;28.21;38.00;100460.75;5055814;28;45756;-62
2021/07/23 11:22:28;;;;;;;;;20.67;19.00;;;;;28.22;38.17;100457.91;5054600;28;45486;-61
2021/07/23 11:24:57;;;;;;;;;19.67;19.67;;;;;28.23;38.65;100461.53;5054547;28;45577;-61
2021/07/23 11:27:35;;;;;;;;;21.00;19.00;;;;;28.21;38.91;100461.63;5056083;28;45574;-62